Time;durP1;ratioP1;P1;durP2;ratioP2;P2;SDS_P1;SDS_P2;PMS_P1;PMS_P2;Temp;Humidity;BMP_temperature;BMP_pressure;BME280_temperature;BME280_humidity;BME280_pressure;Samples;Min_cycle;Max_cycle;Signal;HPM_P1;HPM_P2
2023/05/27 00:01:20;;;;;;;0.40;0.40;;;20.60;57.70;;;20.94;41.13;95649.72;5076491;28;20628;-33
2023/05/27 00:03:47;;;;;;;0.50;0.50;;;20.60;57.70;;;20.94;41.02;95654.25;5075884;28;20187;-33
2023/05/27 00:06:14;;;;;;;0.40;0.40;;;20.60;57.70;;;20.92;40.92;95659.00;5074941;28;20517;-34
2023/05/27 00:08:41;;;;;;;0.50;0.50;;;20.60;59.10;;;20.90;40.90;95651.25;5074719;28;20193;-34
2023/05/27 00:11:08;;;;;;;0.40;0.40;;;20.50;57.70;;;20.89;40.72;95646.19;5075753;28;20222;-33
2023/05/27 00:13:35;;;;;;;0.47;0.47;;;20.50;57.80;;;20.86;41.05;95654.63;5075949;28;20259;-33
2023/05/27 00:16:02;;;;;;;0.50;0.50;;;20.50;57.80;;;20.84;40.65;95652.22;5075289;28;20211;-33
2023/05/27 00:18:32;;;;;;;0.40;0.40;;;20.50;57.90;;;20.82;41.19;95648.97;5075136;28;20195;-33
2023/05/27 00:20:59;;;;;;;0.47;0.47;;;20.50;57.90;;;20.81;41.35;95646.56;5075348;28;20193;-33
2023/05/27 00:23:26;;;;;;;0.50;0.50;;;20.40;57.90;;;20.78;41.02;95645.19;5075371;28;20198;-33
2023/05/27 00:25:54;;;;;;;0.60;0.60;;;20.50;58.00;;;20.76;40.98;95648.09;5074380;28;20191;-33
2023/05/27 00:28:21;;;;;;;0.50;0.50;;;20.40;58.00;;;20.76;41.17;95653.41;5074767;28;20194;-33
2023/05/27 00:30:48;;;;;;;0.50;0.50;;;20.40;58.00;;;20.75;41.15;95648.31;5075348;28;20216;-33
2023/05/27 00:33:16;;;;;;;0.50;0.50;;;20.40;58.00;;;20.73;41.40;95650.41;5074253;28;20195;-33
2023/05/27 00:35:43;;;;;;;0.60;0.60;;;20.40;58.00;;;20.72;41.09;95646.94;5075105;28;20228;-33
2023/05/27 00:38:10;;;;;;;0.30;0.30;;;20.40;58.10;;;20.71;41.73;95655.13;5074161;28;20286;-33
2023/05/27 00:40:40;;;;;;;0.50;0.50;;;20.40;59.50;;;20.67;41.72;95646.00;5074947;28;20204;-33
2023/05/27 00:43:08;;;;;;;0.50;0.50;;;20.40;58.20;;;20.66;41.15;95650.50;5074112;28;20283;-33
2023/05/27 00:45:35;;;;;;;0.50;0.50;;;20.30;58.20;;;20.64;41.46;95648.09;5075050;28;20182;-33
2023/05/27 00:48:03;;;;;;;0.45;0.45;;;20.30;58.20;;;20.63;41.88;95651.00;5075024;28;20194;-33
2023/05/27 00:50:31;;;;;;;0.50;0.50;;;20.30;58.30;;;20.62;41.39;95646.72;5057597;28;20190;-33
2023/05/27 00:52:58;;;;;;;0.50;0.50;;;20.30;58.20;;;20.60;41.67;95640.81;5075278;28;20199;-33
2023/05/27 00:55:26;;;;;;;0.45;0.45;;;20.30;58.30;;;20.59;41.29;95645.34;5074975;28;20201;-33
2023/05/27 00:57:54;;;;;;;0.40;0.40;;;20.30;58.30;;;20.58;41.36;95641.03;5057396;28;20268;-33
2023/05/27 01:00:22;;;;;;;0.50;0.50;;;20.30;58.30;;;20.57;41.78;95639.44;5073716;28;20198;-33
2023/05/27 01:02:50;;;;;;;0.50;0.50;;;20.20;58.20;;;20.56;41.44;95637.81;5075175;28;20196;-33
2023/05/27 01:05:21;;;;;;;0.40;0.40;;;20.20;58.30;;;20.54;41.56;95639.09;5074003;28;20187;-33
2023/05/27 01:08:11;;;;;;;0.60;0.60;;;20.20;58.30;;;20.50;41.53;95630.75;5075429;28;20240;-33
2023/05/27 01:10:54;;;;;;;0.50;0.50;;;20.20;58.30;;;20.47;41.90;95634.72;5073647;28;20211;-33
2023/05/27 01:13:43;;;;;;;0.50;0.50;;;20.20;58.40;;;20.44;41.84;95626.38;5074724;28;20319;-33
2023/05/27 01:16:13;;;;;;;0.40;0.40;;;20.20;58.40;;;20.44;41.94;95623.72;5057477;28;20656;-33
2023/05/27 01:18:44;;;;;;;0.50;0.50;;;20.20;58.30;;;20.42;41.53;95628.44;5074260;28;20193;-33
2023/05/27 01:21:19;;;;;;;0.40;0.40;;;20.10;58.20;;;20.40;41.46;95627.91;5074978;28;20187;-33
2023/05/27 01:23:51;;;;;;;0.50;0.50;;;20.20;58.40;;;20.36;41.98;95627.56;5074715;28;20213;-33
2023/05/27 01:26:17;;;;;;;0.40;0.40;;;20.10;58.30;;;;;;5073754;28;20218;-33
2023/05/27 01:28:45;;;;;;;0.50;0.50;;;20.10;58.20;;;20.32;41.99;95629.06;5073405;28;20295;-33
2023/05/27 01:32:03;;;;;;;0.50;0.50;;;20.10;58.30;;;20.25;42.01;95631.88;5057099;28;20217;-33
2023/05/27 01:35:14;;;;;;;0.50;0.50;;;20.00;58.10;;;20.21;41.71;95635.22;5073587;28;20201;-33
2023/05/27 01:37:43;;;;;;;0.30;0.30;;;20.00;58.10;;;20.17;41.97;95629.56;5071522;28;20557;-33
2023/05/27 01:40:13;;;;;;;0.50;0.50;;;20.00;58.10;;;20.15;42.13;95629.81;5076941;28;20567;-33
2023/05/27 01:42:43;;;;;;;0.40;0.40;;;20.00;58.20;;;20.14;42.12;95632.69;5077690;28;20188;-33
2023/05/27 01:45:12;;;;;;;0.40;0.40;;;20.00;58.40;;;20.12;41.83;95629.47;5060840;28;20220;-33
2023/05/27 01:47:40;;;;;;;0.50;0.50;;;19.90;58.30;;;20.11;41.84;95635.84;5078517;28;20213;-33
2023/05/27 01:50:08;;;;;;;0.45;0.45;;;19.90;58.40;;;20.09;41.72;95638.75;5077054;28;20191;-33
2023/05/27 01:52:35;;;;;;;0.47;0.47;;;19.90;58.40;;;20.05;42.03;95631.44;5077292;28;20660;-33
2023/05/27 01:55:04;;;;;;;0.40;0.40;;;19.80;58.40;;;20.06;41.82;95633.06;5077156;28;20202;-33
2023/05/27 01:57:33;;;;;;;0.50;0.50;;;19.80;58.50;;;20.04;42.21;95627.94;5077032;28;20257;-33
2023/05/27 02:00:00;;;;;;;0.50;0.50;;;19.80;58.40;;;20.03;42.27;95626.38;5060827;28;20200;-33
2023/05/27 02:02:28;;;;;;;0.63;0.63;;;19.80;58.50;;;20.02;42.07;95623.91;5077239;28;20534;-33
2023/05/27 02:04:55;;;;;;;0.40;0.40;;;19.80;58.60;;;19.99;42.30;95622.53;5077074;28;20191;-33
2023/05/27 02:07:22;;;;;;;0.50;0.50;;;19.80;58.60;;;19.98;42.14;95628.88;5076903;28;20292;-33
2023/05/27 02:09:50;;;;;;;0.50;0.50;;;19.80;58.60;;;19.97;42.08;95619.31;5076712;28;20628;-33
2023/05/27 02:12:18;;;;;;;0.43;0.43;;;19.80;58.60;;;19.95;41.97;95616.06;5060354;28;20276;-33
2023/05/27 02:14:46;;;;;;;0.70;0.70;;;19.70;58.50;;;19.94;42.11;95612.56;5078057;28;20568;-33
2023/05/27 02:17:14;;;;;;;0.40;0.40;;;19.70;58.50;;;19.94;41.94;95614.44;5076817;28;20288;-33
2023/05/27 02:19:41;;;;;;;0.50;0.50;;;19.70;58.60;;;19.94;42.02;95611.78;5076574;28;20231;-33
2023/05/27 02:22:10;;;;;;;0.50;0.50;;;19.70;58.70;;;19.92;42.34;95614.69;5076656;28;20198;-33
2023/05/27 02:24:37;;;;;;;0.60;0.60;;;19.70;58.60;;;19.91;42.28;95607.72;5078160;28;20189;-33
2023/05/27 02:27:05;;;;;;;0.50;0.50;;;19.70;58.60;;;19.90;42.13;95613.28;5077819;28;20642;-33
2023/05/27 02:29:32;;;;;;;0.50;0.50;;;19.70;58.60;;;19.89;42.00;95612.47;5077280;28;20217;-33
2023/05/27 02:31:59;;;;;;;0.50;0.50;;;19.60;58.60;;;19.87;41.91;95614.53;5076484;28;20217;-33
2023/05/27 02:34:26;;;;;;;0.40;0.40;;;19.60;58.70;;;19.86;42.01;95615.63;5077385;28;20201;-33
2023/05/27 02:36:54;;;;;;;0.60;0.60;;;19.60;58.60;;;19.84;42.24;95626.47;5076303;28;20629;-32
2023/05/27 02:39:21;;;;;;;0.50;0.50;;;19.60;58.70;;;19.83;42.23;95624.88;5076220;28;20209;-33
2023/05/27 02:41:48;;;;;;;0.50;0.50;;;19.60;58.70;;;19.83;42.46;95629.34;5076317;28;20281;-33
2023/05/27 02:44:15;;;;;;;0.55;0.55;;;19.60;58.60;;;19.82;42.02;95627.72;5059702;28;20197;-33
2023/05/27 02:46:42;;;;;;;0.52;0.52;;;19.60;58.70;;;19.81;42.08;95634.91;5077165;28;20560;-33
2023/05/27 02:49:09;;;;;;;0.57;0.57;;;19.60;58.70;;;19.79;42.19;95629.00;5076925;28;20195;-33
2023/05/27 02:51:37;;;;;;;0.50;0.50;;;19.60;58.70;;;19.78;42.20;95637.22;5076982;28;20273;-33
2023/05/27 02:54:04;;;;;;;0.40;0.40;;;19.60;58.60;;;19.77;42.50;95638.25;5076176;28;20224;-33
2023/05/27 02:56:31;;;;;;;0.40;0.40;;;19.50;58.50;;;19.76;42.41;95640.13;5059375;28;20318;-32
2023/05/27 02:58:59;;;;;;;0.50;0.50;;;19.50;58.50;;;19.76;42.33;95639.28;5076792;28;20198;-33
2023/05/27 03:01:26;;;;;;;0.50;0.50;;;19.50;58.60;;;19.73;42.24;95629.94;5076696;28;20189;-33
2023/05/27 03:03:53;;;;;;;0.40;0.40;;;19.50;58.60;;;19.72;42.00;95638.16;5077039;28;20189;-33
2023/05/27 03:06:21;;;;;;;0.45;0.45;;;19.50;58.70;;;19.71;42.35;95636.53;5075804;28;20206;-33
2023/05/27 03:08:48;;;;;;;0.45;0.45;;;19.50;58.60;;;19.70;42.01;95640.22;5076688;28;20304;-33
2023/05/27 03:11:15;;;;;;;0.40;0.40;;;19.50;58.60;;;19.68;42.31;95635.16;5059031;28;20195;-33
2023/05/27 03:13:42;;;;;;;0.50;0.50;;;19.50;58.70;;;19.66;42.51;95630.06;5076413;28;20697;-33
2023/05/27 03:16:10;;;;;;;0.50;0.50;;;19.40;58.50;;;19.66;42.53;95629.22;5075601;28;20199;-33
2023/05/27 03:18:38;;;;;;;0.40;0.40;;;19.50;58.70;;;19.65;42.53;95635.59;5075529;28;20221;-33
2023/05/27 03:21:05;;;;;;;0.40;0.40;;;19.50;58.80;;;19.64;42.46;95628.66;5075165;28;20508;-33
2023/05/27 03:23:32;;;;;;;0.52;0.52;;;19.50;58.80;;;19.62;42.10;95639.53;5075491;28;20191;-33
2023/05/27 03:26:00;;;;;;;0.47;0.47;;;19.40;58.70;;;19.63;42.36;95643.00;5075442;28;20275;-33
2023/05/27 03:28:29;;;;;;;0.40;0.40;;;19.40;58.80;;;19.61;42.10;95637.09;5075380;28;20328;-33
2023/05/27 03:30:56;;;;;;;0.40;0.40;;;19.40;58.80;;;19.60;42.56;95641.59;5075433;28;20626;-33
2023/05/27 03:33:39;;;;;;;0.60;0.60;;;19.40;58.90;;;19.58;42.21;95648.19;5075333;28;20309;-32
2023/05/27 03:36:08;;;;;;;0.50;0.50;;;19.40;58.90;;;19.56;42.27;95651.09;5075348;28;20211;-32
2023/05/27 03:38:35;;;;;;;0.60;0.60;;;19.40;60.10;;;19.55;42.33;95654.78;5076080;28;20227;-33
2023/05/27 03:41:02;;;;;;;0.40;0.40;;;19.40;59.00;;;19.53;42.23;95643.59;5075035;28;20211;-33
2023/05/27 03:43:30;;;;;;;0.50;0.50;;;19.40;59.00;;;19.52;42.41;95648.09;5076237;28;20255;-33
2023/05/27 03:45:57;;;;;;;0.55;0.55;;;19.40;59.00;;;19.51;42.90;95648.31;5075011;28;20201;-33
2023/05/27 03:48:25;;;;;;;0.40;0.40;;;19.30;59.00;;;19.51;42.55;95645.66;5075000;28;20201;-33
2023/05/27 03:50:52;;;;;;;0.50;0.50;;;19.40;59.00;;;19.50;42.49;95642.16;5076576;28;20190;-33
2023/05/27 03:53:19;;;;;;;0.50;0.50;;;19.30;58.90;;;19.49;42.50;95643.25;5076000;28;20275;-33
2023/05/27 03:55:46;;;;;;;0.52;0.52;;;19.30;59.10;;;19.48;42.74;95644.28;5075799;28;20256;-33
2023/05/27 03:58:13;;;;;;;0.40;0.40;;;19.30;59.00;;;19.48;43.04;95643.44;5074687;28;20303;-33
2023/05/27 04:00:41;;;;;;;0.50;0.50;;;19.30;59.10;;;19.48;42.88;95644.28;5058032;28;20643;-33
2023/05/27 04:03:09;;;;;;;0.40;0.40;;;19.40;59.20;;;19.46;42.63;95641.03;5074293;28;20219;-32
2023/05/27 04:05:37;;;;;;;0.50;0.50;;;19.30;59.20;;;19.47;43.15;95644.47;5074666;28;20257;-32
2023/05/27 04:08:05;;;;;;;0.50;0.50;;;19.30;59.20;;;19.46;42.65;95641.03;5074582;28;20201;-33
2023/05/27 04:10:32;;;;;;;0.50;0.50;;;19.30;59.20;;;19.46;42.50;95640.22;5075435;28;20196;-33
2023/05/27 04:12:59;;;;;;;0.52;0.52;;;19.30;59.30;;;19.46;42.76;95642.88;5074465;28;20319;-33
2023/05/27 04:15:26;;;;;;;0.50;0.50;;;19.30;59.30;;;19.44;42.78;95642.28;5075424;28;20204;-32
2023/05/27 04:17:53;;;;;;;0.50;0.50;;;19.30;59.40;;;19.47;42.88;95641.81;5074507;28;20596;-33
2023/05/27 04:20:20;;;;;;;0.50;0.50;;;19.30;59.40;;;19.45;42.76;95644.72;5075161;28;20195;-32
2023/05/27 04:22:52;;;;;;;0.45;0.45;;;19.30;59.40;;;19.45;42.79;95644.72;5074410;28;20183;-33
2023/05/27 04:25:20;;;;;;;0.60;0.60;;;19.30;59.50;;;19.44;43.38;95643.09;5074387;28;20183;-32
2023/05/27 04:28:08;;;;;;;0.50;0.50;;;19.30;59.60;;;19.43;43.21;95641.50;5075601;28;20252;-33
2023/05/27 04:30:40;;;;;;;0.50;0.50;;;19.30;59.50;;;19.43;43.27;95640.66;5074082;28;20206;-32
2023/05/27 04:33:16;;;;;;;0.50;0.50;;;19.30;59.50;;;19.43;43.45;95643.34;5074547;28;20292;-32
2023/05/27 04:35:47;;;;;;;0.43;0.43;;;19.30;59.60;;;19.42;42.84;95644.38;5074541;28;20258;-32
2023/05/27 04:38:16;;;;;;;0.50;0.50;;;19.30;59.60;;;19.42;42.99;95652.34;5074943;28;20250;-33
2023/05/27 04:40:55;;;;;;;0.50;0.50;;;19.30;59.60;;;19.41;43.43;95648.06;5074034;28;20179;-33
2023/05/27 04:43:42;;;;;;;0.50;0.50;;;19.30;60.60;;;19.39;43.35;95648.28;5075632;28;20186;-33
2023/05/27 04:46:12;;;;;;;0.50;0.50;;;19.30;59.60;;;19.41;43.46;95648.06;5074399;28;20190;-32
2023/05/27 04:48:40;;;;;;;0.40;0.40;;;19.30;59.60;;;19.41;43.35;95651.53;5074038;28;20292;-32
2023/05/27 04:51:08;;;;;;;0.40;0.40;;;19.30;59.70;;;19.42;43.40;95644.38;5073846;28;20213;-33
2023/05/27 04:53:35;;;;;;;0.60;0.60;;;19.30;59.60;;;19.43;43.55;95641.50;5074073;28;20766;-32
2023/05/27 04:56:02;;;;;;;0.60;0.60;;;19.30;59.60;;;19.44;43.23;95650.28;5057470;28;20290;-32
2023/05/27 04:58:32;;;;;;;0.50;0.50;;;19.30;59.60;;;19.43;42.94;95641.50;5074865;28;20215;-32
2023/05/27 05:01:02;;;;;;;0.50;0.50;;;19.30;59.70;;;19.44;43.02;95648.41;5074764;28;20200;-33
2023/05/27 05:03:50;;;;;;;0.50;0.50;;;19.30;59.60;;;19.45;43.12;95644.72;5073925;28;20211;-32
2023/05/27 05:06:22;;;;;;;0.50;0.50;;;19.30;59.60;;;19.45;43.37;95660.69;5073864;28;20203;-33
2023/05/27 05:08:51;;;;;;;0.40;0.40;;;19.30;60.60;;;19.44;43.14;95653.72;5073877;28;20207;-33
2023/05/27 05:11:18;;;;;;;0.52;0.52;;;19.30;59.60;;;19.45;43.11;95655.34;5073715;28;20200;-33
2023/05/27 05:13:46;;;;;;;0.50;0.50;;;19.30;59.60;;;19.48;43.51;95654.09;5058260;28;20233;-33
2023/05/27 05:16:14;;;;;;;0.40;0.40;;;19.30;59.50;;;19.47;43.42;95655.13;5061369;28;20628;-33
2023/05/27 05:18:41;;;;;;;0.40;0.40;;;19.40;59.70;;;19.50;43.05;95662.66;5078373;28;20212;-33
2023/05/27 05:21:10;;;;;;;0.30;0.30;;;19.40;59.70;;;19.51;43.29;95664.28;5077677;28;20213;-33
2023/05/27 05:23:41;;;;;;;0.40;0.40;;;19.40;59.70;;;19.51;43.31;95662.41;5077778;28;20234;-33
2023/05/27 05:26:08;;;;;;;0.50;0.50;;;19.40;59.70;;;19.52;43.45;95665.91;5077741;28;20255;-33
2023/05/27 05:28:39;;;;;;;0.60;0.60;;;19.40;59.70;;;19.55;43.12;95664.63;5077728;28;20240;-33
2023/05/27 05:31:08;;;;;;;0.50;0.50;;;19.40;59.70;;;19.55;43.46;95660.13;5077446;28;20209;-33
2023/05/27 05:33:35;;;;;;;0.50;0.50;;;19.40;59.70;;;19.55;43.61;95669.97;5077588;28;20262;-33
2023/05/27 05:36:04;;;;;;;0.40;0.40;;;19.40;59.60;;;19.55;43.21;95662.78;5077537;28;20267;-33
2023/05/27 05:38:50;;;;;;;0.40;0.40;;;19.40;59.50;;;19.55;43.61;95665.44;5077440;28;20266;-33
2023/05/27 05:41:17;;;;;;;0.40;0.40;;;19.50;59.50;;;19.55;43.10;95667.31;5077627;28;20233;-33
2023/05/27 05:43:45;;;;;;;0.40;0.40;;;19.50;59.50;;;19.57;43.28;95670.56;5077720;28;20696;-33
2023/05/27 05:46:13;;;;;;;0.40;0.40;;;19.50;59.40;;;19.57;43.42;95667.88;5077860;28;20197;-33
2023/05/27 05:48:40;;;;;;;0.40;0.40;;;19.50;59.40;;;19.60;43.45;95660.22;5077261;28;20535;-33
2023/05/27 05:51:12;;;;;;;0.50;0.50;;;19.50;59.30;;;19.60;43.23;95668.22;5061552;28;20305;-33
2023/05/27 05:53:41;;;;;;;0.40;0.40;;;19.50;59.40;;;19.61;43.01;95672.50;5077161;28;20203;-33
2023/05/27 05:56:09;;;;;;;0.50;0.50;;;19.50;59.30;;;19.63;43.02;95674.94;5077458;28;20207;-33
2023/05/27 05:58:36;;;;;;;0.50;0.50;;;19.50;59.30;;;19.65;42.88;95678.16;5077044;28;20275;-33
2023/05/27 06:01:04;;;;;;;0.50;0.50;;;19.50;59.30;;;19.65;42.89;95675.50;5078142;28;20199;-33
2023/05/27 06:03:36;;;;;;;0.50;0.50;;;19.50;59.30;;;19.65;42.96;95668.34;5077083;28;20187;-33
2023/05/27 06:06:06;;;;;;;0.50;0.50;;;19.50;59.30;;;19.68;42.94;95673.19;5061684;28;20252;-33
2023/05/27 06:08:50;;;;;;;0.63;0.63;;;19.60;59.40;;;19.69;43.05;95674.03;5077211;28;20195;-33
2023/05/27 06:11:18;;;;;;;0.65;0.65;;;19.60;59.40;;;19.69;43.04;95676.69;5076712;28;20266;-33
2023/05/27 06:13:45;;;;;;;0.50;0.50;;;19.60;59.40;;;19.68;43.43;95681.19;5076704;28;20233;-33
2023/05/27 06:16:15;;;;;;;0.50;0.50;;;19.60;59.30;;;19.70;43.36;95680.16;5077297;28;20197;-33
2023/05/27 06:18:45;;;;;;;0.57;0.57;;;19.60;59.40;;;19.70;43.23;95694.28;5076667;28;20671;-33
2023/05/27 06:21:13;;;;;;;0.60;0.60;;;19.60;59.40;;;19.71;43.03;95687.91;5076547;28;20218;-33
2023/05/27 06:24:19;;;;;;;0.50;0.50;;;19.60;59.40;;;19.72;43.49;95683.41;5076897;28;20645;-33
2023/05/27 06:26:52;;;;;;;0.50;0.50;;;19.70;59.40;;;19.74;43.00;95676.81;5076897;28;20198;-33
2023/05/27 06:29:19;;;;;;;0.50;0.50;;;19.70;59.50;;;19.76;43.56;95679.22;5076572;28;20227;-33
2023/05/27 06:31:48;;;;;;;0.60;0.60;;;19.60;59.40;;;19.75;42.90;95680.25;5076344;28;20198;-33
2023/05/27 06:34:18;;;;;;;0.60;0.60;;;19.70;59.50;;;19.79;43.11;95682.22;5076590;28;20193;-33
2023/05/27 06:36:48;;;;;;;0.55;0.55;;;19.70;59.30;;;19.81;43.23;95682.00;5076471;28;20582;-33
2023/05/27 06:39:16;;;;;;;0.50;0.50;;;19.70;59.40;;;19.83;43.22;95680.78;5076464;28;20216;-33
2023/05/27 06:41:43;;;;;;;0.50;0.50;;;19.70;59.30;;;19.85;43.37;95683.19;5076134;28;20213;-33
2023/05/27 06:44:33;;;;;;;0.50;0.50;;;19.70;59.30;;;19.87;43.29;95678.44;5069300;28;20236;-33
2023/05/27 06:47:08;;;;;;;0.50;0.50;;;19.70;59.50;;;19.90;43.08;95682.50;5076263;28;20285;-33
2023/05/27 06:49:36;;;;;;;0.40;0.40;;;19.80;59.40;;;19.91;43.51;95681.44;5076153;28;20203;-33
2023/05/27 06:52:06;;;;;;;0.50;0.50;;;19.80;59.50;;;19.94;43.19;95687.13;5076568;28;20275;-33
2023/05/27 06:54:49;;;;;;;0.50;0.50;;;19.80;59.50;;;19.96;43.16;95686.91;5076165;28;20204;-33
2023/05/27 06:57:35;;;;;;;0.50;0.50;;;19.80;59.40;;;19.97;43.25;95691.19;5077491;28;20229;-33
2023/05/27 07:00:11;;;;;;;0.40;0.40;;;19.90;59.40;;;19.97;43.19;95686.66;5076599;28;20492;-33
2023/05/27 07:02:48;;;;;;;0.50;0.50;;;19.90;59.40;;;19.99;42.92;95681.94;5076072;28;20193;-33
2023/05/27 07:05:15;;;;;;;0.60;0.60;;;19.90;59.40;;;20.02;42.86;95688.66;5075935;28;20226;-33
2023/05/27 07:07:42;;;;;;;0.50;0.50;;;19.90;59.40;;;20.05;43.27;95684.69;5075829;28;20209;-33
2023/05/27 07:10:10;;;;;;;0.40;0.40;;;19.90;59.30;;;20.06;43.19;95678.34;5075832;28;20296;-33
2023/05/27 07:12:37;;;;;;;0.50;0.50;;;19.90;59.30;;;20.08;42.85;95684.22;5075351;28;20566;-33
2023/05/27 07:15:27;;;;;;;0.52;0.52;;;19.90;59.20;;;20.09;43.14;95683.19;5078069;28;20195;-33
2023/05/27 07:17:55;;;;;;;0.50;0.50;;;20.00;59.30;;;20.10;43.01;95688.31;5075762;28;20544;-33
2023/05/27 07:20:23;;;;;;;0.60;0.60;;;20.00;59.20;;;20.12;42.71;95686.19;5075559;28;20208;-33
2023/05/27 07:22:51;;;;;;;0.50;0.50;;;20.00;59.10;;;20.14;43.00;95692.09;5059144;28;20674;-33
2023/05/27 07:25:19;;;;;;;0.55;0.55;;;20.00;59.00;;;20.18;42.48;95686.28;5075485;28;20200;-33
2023/05/27 07:27:46;;;;;;;0.70;0.70;;;20.00;58.90;;;20.19;42.61;95693.25;5075446;28;20296;-33
2023/05/27 07:30:13;;;;;;;0.70;0.70;;;20.10;59.00;;;20.20;42.65;95693.03;5075354;28;20625;-33
2023/05/27 07:32:49;;;;;;;0.40;0.40;;;20.10;58.90;;;20.21;42.85;95689.31;5075672;28;20195;-33
2023/05/27 07:35:17;;;;;;;0.60;0.60;;;20.10;58.90;;;20.23;42.24;95697.09;5076918;28;20231;-33
2023/05/27 07:37:44;;;;;;;0.60;0.60;;;20.10;58.90;;;20.25;42.68;95692.31;5074270;28;20212;-33
2023/05/27 07:40:12;;;;;;;0.40;0.40;;;20.10;58.70;;;20.27;42.33;95695.56;5075165;28;20631;-33
2023/05/27 07:42:40;;;;;;;0.40;0.40;;;20.10;58.70;;;20.29;42.25;95699.59;5074936;28;20583;-33
2023/05/27 07:45:08;;;;;;;0.60;0.60;;;20.10;58.60;;;20.31;42.55;95688.72;5075090;28;20194;-33
2023/05/27 07:47:36;;;;;;;0.50;0.50;;;20.20;58.60;;;20.32;42.05;95679.69;5075020;28;20197;-33
2023/05/27 07:50:03;;;;;;;0.40;0.40;;;20.20;58.50;;;20.35;41.87;95679.22;5075007;28;20285;-33
2023/05/27 07:52:30;;;;;;;0.50;0.50;;;20.20;58.20;;;20.37;42.31;95677.13;5076301;28;20236;-33
2023/05/27 07:54:59;;;;;;;0.40;0.40;;;20.20;58.40;;;20.36;42.01;95680.84;5074892;28;20292;-33
2023/05/27 07:57:26;;;;;;;0.50;0.50;;;20.20;58.00;;;20.39;41.87;95680.38;5076865;28;20336;-33
2023/05/27 07:59:54;;;;;;;0.70;0.70;;;20.20;57.70;;;20.41;41.84;95677.47;5074814;28;20634;-33
2023/05/27 08:02:27;;;;;;;0.45;0.45;;;20.30;57.60;;;20.41;41.82;95678.28;5074672;28;20203;-33
2023/05/27 08:04:55;;;;;;;0.50;0.50;;;20.30;57.60;;;20.42;41.51;95674.59;5058504;28;20206;-33
2023/05/27 08:07:35;;;;;;;0.50;0.50;;;20.30;57.60;;;20.45;41.57;95679.41;5074687;28;20190;-33
2023/05/27 08:10:16;;;;;;;0.40;0.40;;;20.30;57.40;;;20.45;41.01;95668.75;5059967;28;20201;-33
2023/05/27 08:13:06;;;;;;;0.50;0.50;;;20.40;57.50;;;20.49;41.28;95674.44;5067314;28;20237;-33
2023/05/27 08:15:54;;;;;;;0.45;0.45;;;20.40;57.40;;;20.49;41.09;95669.09;5074537;28;20258;-33
2023/05/27 08:18:43;;;;;;;0.45;0.45;;;20.40;57.40;;;20.51;41.33;95660.88;5075084;28;20218;-32
2023/05/27 08:21:22;;;;;;;0.52;0.52;;;20.40;57.40;;;20.51;41.27;95658.19;5074447;28;20563;-32
2023/05/27 08:23:58;;;;;;;0.50;0.50;;;20.40;57.20;;;20.54;41.22;95653.22;5074432;28;20205;-32
2023/05/27 08:26:37;;;;;;;0.45;0.45;;;20.40;57.30;;;20.55;40.99;95654.84;5076007;28;20182;-33
2023/05/27 08:29:35;;;;;;;0.40;0.40;;;20.40;57.30;;;20.56;41.32;95647.66;5075962;28;20614;-34
2023/05/27 08:32:25;;;;;;;0.50;0.50;;;20.40;57.30;;;20.57;41.15;95644.75;5060529;28;20237;-33
2023/05/27 08:34:53;;;;;;;0.60;0.60;;;20.40;57.20;;;20.60;41.02;95643.47;5074217;28;20609;-33
2023/05/27 08:37:20;;;;;;;0.50;0.50;;;20.40;57.20;;;20.61;41.05;95637.91;5074490;28;20555;-34
2023/05/27 08:39:48;;;;;;;0.50;0.50;;;20.50;57.20;;;20.64;40.67;95642.75;5074429;28;20234;-34
2023/05/27 08:42:36;;;;;;;0.50;0.50;;;20.50;57.20;;;20.66;40.88;95639.06;5074237;28;20195;-37
2023/05/27 08:45:06;;;;;;;0.50;0.50;;;20.50;57.20;;;20.69;41.05;95647.38;5074084;28;20207;-34
2023/05/27 08:47:34;;;;;;;0.50;0.50;;;20.50;57.20;;;20.73;40.91;95645.09;5073949;28;20210;-34
2023/05/27 08:50:03;;;;;;;0.40;0.40;;;20.50;57.10;;;20.75;41.02;95645.63;5057706;28;20211;-34
2023/05/27 08:52:30;;;;;;;0.60;0.60;;;20.60;57.10;;;20.77;40.33;95639.00;5073896;28;20271;-34
2023/05/27 08:54:58;;;;;;;0.40;0.40;;;20.60;56.90;;;20.79;40.47;95639.59;5074089;28;20213;-34
2023/05/27 08:57:30;;;;;;;0.50;0.50;;;20.60;56.90;;;20.82;40.85;95640.19;5074386;28;20313;-34
2023/05/27 08:59:57;;;;;;;0.63;0.63;;;20.60;56.80;;;20.82;40.50;95626.84;5074880;28;20215;-34
2023/05/27 09:02:27;;;;;;;0.40;0.40;;;20.60;56.50;;;20.85;40.48;95635.19;5057188;28;20198;-35
2023/05/27 09:04:55;;;;;;;0.40;0.40;;;20.60;56.50;;;20.87;40.48;95632.25;5057357;28;20210;-35
2023/05/27 09:07:22;;;;;;;0.40;0.40;;;20.70;56.70;;;20.89;40.63;95640.84;5074872;28;20229;-34
2023/05/27 09:09:57;;;;;;;0.60;0.60;;;20.70;56.70;;;20.90;40.54;95634.47;5074830;28;20203;-34
2023/05/27 09:12:26;;;;;;;0.47;0.47;;;20.70;56.60;;;20.93;40.43;95628.63;5073598;28;20231;-34
2023/05/27 09:14:54;;;;;;;0.40;0.40;;;20.70;56.80;;;20.96;40.23;95633.50;5075073;28;20497;-34
2023/05/27 09:17:23;;;;;;;0.40;0.40;;;20.80;56.90;;;20.97;40.60;95624.47;5074813;28;20200;-35
2023/05/27 09:19:55;;;;;;;0.47;0.47;;;20.80;56.30;;;20.98;40.25;95631.38;5074624;28;20211;-34
2023/05/27 09:22:30;;;;;;;0.60;0.60;;;20.80;56.00;;;20.98;40.19;95626.06;5074573;28;20262;-37
2023/05/27 09:24:57;;;;;;;0.60;0.60;;;20.80;57.00;;;21.00;40.14;95625.84;5075166;28;20244;-34
2023/05/27 09:27:29;;;;;;;0.55;0.55;;;20.80;56.00;;;21.03;39.65;95628.84;5074932;28;20205;-34
2023/05/27 09:29:58;;;;;;;0.40;0.40;;;20.80;55.90;;;21.03;39.34;95626.16;5075291;28;20267;-33
2023/05/27 09:32:30;;;;;;;0.57;0.57;;;20.90;55.80;;;21.04;40.03;95625.09;5073571;28;20531;-32
2023/05/27 09:34:58;;;;;;;0.38;0.38;;;20.90;55.80;;;21.07;39.61;95613.16;5073884;28;20674;-32
2023/05/27 09:37:34;;;;;;;0.50;0.50;;;20.90;55.70;;;21.08;39.84;95618.25;5074073;28;20195;-32
2023/05/27 09:40:10;;;;;;;0.70;0.70;;;20.90;55.70;;;21.09;39.32;95619.88;5074548;28;20207;-32
2023/05/27 09:42:41;;;;;;;0.52;0.52;;;20.90;55.40;;;21.11;39.80;95617.75;5074343;28;20178;-32
2023/05/27 09:45:13;;;;;;;0.43;0.43;;;20.90;55.40;;;21.12;39.50;95610.56;5074843;28;20702;-32
2023/05/27 09:47:52;;;;;;;0.60;0.60;;;21.00;55.40;;;21.13;39.57;95614.03;5073553;28;20180;-32
2023/05/27 09:50:21;;;;;;;0.70;0.70;;;21.00;55.50;;;21.13;39.69;95614.88;5074776;28;20206;-32
2023/05/27 09:52:49;;;;;;;0.50;0.50;;;21.00;55.30;;;21.16;39.44;95613.56;5074365;28;20227;-34
2023/05/27 09:55:37;;;;;;;0.40;0.40;;;21.00;55.20;;;21.17;39.30;95609.84;5073895;28;20628;-33
2023/05/27 09:58:05;;;;;;;0.40;0.40;;;21.00;55.10;;;21.19;39.18;95615.75;5074289;28;20209;-33
2023/05/27 10:00:34;;;;;;;0.50;0.50;;;21.00;54.90;;;21.20;38.65;95625.38;5076491;28;20270;-33
2023/05/27 10:03:03;;;;;;;0.40;0.40;;;21.00;54.70;;;21.22;38.58;95615.25;5076797;28;20603;-33
2023/05/27 10:05:30;;;;;;;0.50;0.50;;;21.00;54.80;;;21.25;38.92;95617.44;5098317;28;20254;-33
2023/05/27 10:07:58;;;;;;;0.40;0.40;;;21.10;55.00;;;21.28;38.67;95616.97;5098062;28;20230;-33
2023/05/27 10:10:28;;;;;;;0.40;0.40;;;21.10;55.00;;;21.30;39.15;95612.22;5098553;28;20178;-32
2023/05/27 10:12:57;;;;;;;0.40;0.40;;;21.10;56.20;;;21.34;39.02;95601.84;5097634;28;20254;-32
2023/05/27 10:15:28;;;;;;;0.50;0.50;;;21.10;54.80;;;21.36;38.80;95611.22;5098309;28;20187;-32
2023/05/27 10:18:06;;;;;;;0.40;0.40;;;21.10;54.70;;;21.38;38.40;95613.66;5098548;28;20189;-33
2023/05/27 10:20:37;;;;;;;0.40;0.40;;;21.20;54.50;;;21.39;38.45;95600.06;5098263;28;20197;-33
2023/05/27 10:23:15;;;;;;;0.40;0.40;;;21.20;54.70;;;21.40;38.43;95604.34;5097767;28;20193;-33
2023/05/27 10:25:48;;;;;;;0.57;0.57;;;21.20;53.70;;;21.41;38.08;95602.47;5097843;28;20189;-33
2023/05/27 10:28:35;;;;;;;0.30;0.30;;;21.20;53.50;;;21.43;37.95;95598.53;5097949;28;20621;-32
2023/05/27 10:31:16;;;;;;;0.40;0.40;;;21.20;53.50;;;21.44;37.69;95596.66;5098466;28;20191;-32
2023/05/27 10:33:47;;;;;;;0.43;0.43;;;21.20;53.30;;;21.46;37.59;95597.25;5097352;28;20656;-33
2023/05/27 10:36:17;;;;;;;0.40;0.40;;;21.30;53.60;;;21.48;37.81;95597.78;5097616;28;20286;-32